Time;durP1;ratioP1;P1;durP2;ratioP2;P2;SDS_P1;SDS_P2;PMS_P1;PMS_P2;Temp;Humidity;BMP_temperature;BMP_pressure;BME280_temperature;BME280_humidity;BME280_pressure;Samples;Min_cycle;Max_cycle;Signal;HPM_P1;HPM_P2
2021/01/17 00:01:44;;;;;;;11.00;8.27;;;;;;;;;;14997365;29;20229;-83
2021/01/17 00:09:12;;;;;;;10.17;8.40;;;;;;;;;;15014701;29;20222;-83
2021/01/17 00:16:39;;;;;;;10.13;8.10;;;0.80;68.00;;;;;;15011222;29;20233;-79
2021/01/17 00:24:06;;;;;;;10.53;8.60;;;;;;;;;;15012487;29;20607;-85
2021/01/17 00:31:38;;;;;;;12.40;8.90;;;;;;;;;;15015459;29;20269;-85
2021/01/17 00:39:08;;;;;;;11.87;9.13;;;;;;;;;;15002877;29;20186;-85
2021/01/17 00:46:39;;;;;;;12.23;8.63;;;;;;;;;;15005663;29;20569;-89
2021/01/17 00:54:07;;;;;;;14.50;8.70;;;;;;;;;;14995615;29;20230;-88
2021/01/17 01:01:39;;;;;;;12.23;9.40;;;;;;;;;;15017441;29;20214;-83
2021/01/17 01:09:08;;;;;;;13.57;9.87;;;;;;;;;;15013686;29;20190;-85
2021/01/17 01:16:34;;;;;;;13.77;9.33;;;;;;;;;;14994874;29;20206;-83
2021/01/17 01:24:02;;;;;;;11.97;9.63;;;;;;;;;;15012849;29;20238;-84
2021/01/17 01:31:28;;;;;;;12.77;9.83;;;;;;;;;;15033290;29;20573;-85
2021/01/17 01:38:55;;;;;;;12.23;9.20;;;;;;;;;;15036150;29;20552;-89
2021/01/17 01:46:25;;;;;;;13.33;10.00;;;;;;;;;;15010405;29;20190;-84
2021/01/17 01:53:52;;;;;;;11.93;9.60;;;;;;;;;;15010687;29;20652;-88
2021/01/17 02:01:22;;;;;;;13.73;10.50;;;;;;;;;;15000607;29;20190;-84
2021/01/17 02:09:14;;;;;;;13.67;10.67;;;1.40;68.20;;;;;;15019435;29;20237;-82
2021/01/17 02:16:41;;;;;;;15.23;11.10;;;;;;;;;;15019190;29;20252;-84
2021/01/17 02:24:11;;;;;;;13.87;10.60;;;;;;;;;;14999833;29;20238;-83
2021/01/17 02:31:40;;;;;;;13.87;10.30;;;;;;;;;;14998262;29;20225;-82
2021/01/17 02:39:13;;;;;;;12.70;10.17;;;0.30;68.50;;;;;;14982901;29;20220;-84
2021/01/17 02:46:42;;;;;;;14.93;10.90;;;;;;;;;;14998224;29;20233;-82
2021/01/17 02:54:13;;;;;;;12.83;10.50;;;0.80;69.10;;;;;;15014752;29;20217;-85
2021/01/17 03:01:39;;;;;;;13.03;10.60;;;;;;;;;;15014709;29;20222;-84
2021/01/17 03:09:10;;;;;;;15.60;11.80;;;;;;;;;;15013146;29;20197;-83
2021/01/17 03:16:37;;;;;;;14.97;11.50;;;;;;;;;;14996393;29;20222;-83
2021/01/17 03:24:03;;;;;;;13.77;11.43;;;;;;;;;;14993886;29;633068;-85
2021/01/17 03:31:31;;;;;;;15.37;12.10;;;;;;;;;;14995624;29;20676;-81
2021/01/17 03:38:57;;;;;;;14.83;12.10;;;;;;;;;;14996010;29;20222;-85
2021/01/17 03:46:24;;;;;;;13.73;11.67;;;;;;;;;;15015449;29;20559;-87
2021/01/17 03:53:53;;;;;;;13.67;11.00;;;;;;;;;;15015849;29;20220;-86
2021/01/17 04:01:19;;;;;;;13.27;11.03;;;;;;;;;;14995903;29;20202;-85
2021/01/17 04:08:47;;;;;;;14.67;10.90;;;;;;;;;;14996860;29;20206;-85
2021/01/17 04:16:14;;;;;;;13.63;10.73;;;;;;;;;;15013582;29;20226;-85
2021/01/17 04:23:42;;;;;;;12.53;10.30;;;;;;;;;;15003131;29;20709;-81
2021/01/17 04:31:10;;;;;;;12.23;10.23;;;;;;;;;;15021973;29;20265;-84
2021/01/17 04:38:38;;;;;;;13.20;10.10;;;;;;;;;;14996082;29;20218;-82
2021/01/17 04:46:09;;;;;;;13.13;10.37;;;;;;;;;;15016412;29;20185;-81
2021/01/17 04:53:36;;;;;;;13.90;10.90;;;;;;;;;;15011367;29;20265;-81
2021/01/17 05:01:04;;;;;;;13.30;10.70;;;;;;;;;;15010559;29;20611;-83
2021/01/17 05:08:32;;;;;;;13.77;10.90;;;;;;;;;;15011535;29;20222;-87
2021/01/17 05:15:59;;;;;;;13.57;10.90;;;;;;;;;;15011064;29;20265;-87
2021/01/17 05:23:33;;;;;;;13.47;10.53;;;;;;;;;;14992264;29;20238;-79
2021/01/17 05:31:00;;;;;;;14.43;11.17;;;;;;;;;;14992987;29;20218;-80
2021/01/17 05:38:28;;;;;;;12.40;10.30;;;;;;;;;;15019524;29;20297;-79
2021/01/17 05:45:55;;;;;;;13.90;11.47;;;;;;;;;;15020880;29;20612;-84
2021/01/17 05:53:27;;;;;;;13.37;10.83;;;0.50;68.10;;;;;;15020135;29;20210;-84
2021/01/17 06:00:55;;;;;;;16.37;11.93;;;;;;;;;;15003829;29;20266;-86
2021/01/17 06:08:22;;;;;;;15.87;12.27;;;;;;;;;;15020135;29;20247;-83
2021/01/17 06:15:49;;;;;;;17.67;11.83;;;;;;;;;;15001895;29;20273;-83
2021/01/17 06:23:21;;;;;;;16.43;12.17;;;;;;;;;;15019871;29;20565;-82
2021/01/17 06:30:56;;;;;;;16.67;13.00;;;;;;;;;;15002864;29;20238;-85
2021/01/17 06:38:23;;;;;;;15.73;12.27;;;;;;;;;;15019431;29;20739;-82
2021/01/17 06:45:53;;;;;;;15.47;11.77;;;;;;;;;;15018601;29;20262;-83
2021/01/17 06:53:24;;;;;;;16.73;12.33;;;;;;;;;;15019384;29;20653;-85
2021/01/17 07:00:51;;;;;;;14.97;11.43;;;;;;;;;;15008871;29;20186;-93
2021/01/17 07:08:41;;;;;;;13.53;11.70;;;0.80;70.20;;;;;;15008291;29;20233;-81
2021/01/17 07:16:08;;;;;;;15.03;12.10;;;;;;;;;;15004458;29;20210;-90
2021/01/17 07:23:35;;;;;;;15.03;11.63;;;;;;;;;;15028988;29;20241;-88
2021/01/17 07:31:09;;;;;;;14.60;12.07;;;1.20;70.00;;;;;;14998984;29;20594;-84
2021/01/17 07:38:36;;;;;;;16.97;12.63;;;;;;;;;;14980863;29;20273;-85
2021/01/17 07:46:05;;;;;;;16.30;13.17;;;;;;;;;;14998473;29;20195;-85
2021/01/17 07:53:44;;;;;;;16.43;12.87;;;1.40;70.20;;;;;;15016482;29;20634;-81
2021/01/17 08:01:45;;;;;;;13.77;11.77;;;0.70;69.70;;;;;;15048238;29;20330;-88
2021/01/17 08:09:13;;;;;;;16.50;12.50;;;;;;;;;;15025137;29;20182;-92
2021/01/17 08:16:41;;;;;;;14.57;12.20;;;;;;;;;;15073341;29;20233;-91
2021/01/17 08:24:22;;;;;;;15.63;12.33;;;;;;;;;;15042194;29;20218;-93
2021/01/17 08:31:49;;;;;;;15.37;12.43;;;;;;;;;;15059615;29;20289;-89
2021/01/17 08:39:36;;;;;;;16.97;12.77;;;;;;;;;;15061779;29;20202;-93
2021/01/17 08:47:20;;;;;;;17.40;13.27;;;;;;;;;;15032221;29;20225;-80
2021/01/17 08:54:50;;;;;;;14.90;12.67;;;;;;;;;;15011904;29;20266;-87
2021/01/17 09:02:18;;;;;;;16.00;12.70;;;;;;;;;;15001770;29;20628;-89
2021/01/17 09:10:03;;;;;;;15.77;12.50;;;;;;;;;;15015995;29;20182;-88
2021/01/17 09:17:32;;;;;;;15.30;12.10;;;;;;;;;;15042660;29;20197;-92
2021/01/17 09:25:00;;;;;;;15.70;12.53;;;;;;;;;;15037461;29;20230;-90
2021/01/17 09:32:27;;;;;;;16.20;12.30;;;;;;;;;;15005827;29;20755;-89
2021/01/17 09:39:58;;;;;;;21.47;12.30;;;;;;;;;;15003607;29;20195;-92
2021/01/17 09:47:26;;;;;;;14.37;11.03;;;;;;;;;;15083483;29;20182;-92
2021/01/17 09:54:54;;;;;;;14.07;11.40;;;;;;;;;;15031608;29;20238;-87
2021/01/17 10:02:23;;;;;;;15.33;11.57;;;;;;;;;;15010112;29;20409;-76
2021/01/17 10:09:50;;;;;;;13.83;10.70;;;;;;;;;;15009218;29;20258;-77
2021/01/17 10:17:16;;;;;;;17.43;11.33;;;;;;;;;;15007354;29;20516;-76
2021/01/17 10:24:43;;;;;;;14.70;11.40;;;;;;;;;;15018904;29;20238;-85
2021/01/17 10:32:11;;;;;;;18.23;11.40;;;;;;;;;;15021582;29;20225;-77
2021/01/17 10:39:39;;;;;;;17.13;11.20;;;1.90;68.20;;;;;;15017114;29;20206;-75
2021/01/17 10:47:14;;;;;;;19.40;11.50;;;3.00;63.60;;;;;;14998302;29;20195;-74
2021/01/17 10:54:43;;;;;;;15.93;11.77;;;1.10;61.70;;;;;;15013944;29;20248;-74
2021/01/17 11:02:21;;;;;;;14.77;11.07;;;1.10;61.30;;;;;;14999119;29;20312;-75
2021/01/17 11:09:47;;;;;;;59.33;13.97;;;1.10;63.70;;;;;;14998584;29;20195;-74
2021/01/17 11:17:20;;;;;;;14.03;10.23;;;2.10;60.90;;;;;;15014185;29;20230;-74
2021/01/17 11:24:46;;;;;;;14.93;11.33;;;;;;;;;;14997094;29;20816;-75
2021/01/17 11:32:13;;;;;;;14.70;11.00;;;;;;;;;;14996333;29;20293;-75
2021/01/17 11:39:40;;;;;;;17.67;11.33;;;;;;;;;;15010171;29;20201;-75
2021/01/17 11:47:18;;;;;;;21.07;11.33;;;1.50;60.00;;;;;;15013008;29;20641;-74
2021/01/17 11:54:46;;;;;;;17.93;10.80;;;;;;;;;;15012560;29;20586;-75
2021/01/17 12:02:20;;;;;;;13.00;10.00;;;7.40;48.70;;;;;;14994784;29;20258;-74
2021/01/17 12:09:47;;;;;;;14.33;10.53;;;8.20;46.50;;;;;;14995015;29;20272;-74
2021/01/17 12:17:14;;;;;;;16.77;10.80;;;;;;;;;;15011416;29;20701;-75
2021/01/17 12:24:40;;;;;;;14.97;10.33;;;4.30;54.80;;;;;;14993865;29;20230;-73
2021/01/17 12:32:07;;;;;;;11.73;9.97;;;5.30;57.90;;;;;;15012621;29;20278;-74
2021/01/17 12:39:37;;;;;;;12.40;10.47;;;;;;;;;;14993081;29;20200;-74
2021/01/17 12:47:08;;;;;;;14.30;10.30;;;;;;;;;;15017947;29;20196;-91
2021/01/17 12:54:34;;;;;;;15.83;10.10;;;;;;;;;;15004637;29;20201;-84
2021/01/17 13:02:03;;;;;;;12.60;9.93;;;;;;;;;;15011719;29;20269;-90
2021/01/17 13:09:32;;;;;;;13.00;9.87;;;;;;;;;;14995257;29;20213;-90
2021/01/17 13:16:59;;;;;;;15.10;10.43;;;;;;;;;;15015342;29;20599;-85
2021/01/17 13:24:25;;;;;;;12.97;10.20;;;;;;;;;;14994888;29;20229;-82
2021/01/17 13:31:53;;;;;;;15.07;9.77;;;;;;;;;;15011304;29;20218;-85
2021/01/17 13:39:20;;;;;;;12.17;9.67;;;;;;;;;;15006724;29;20193;-87
2021/01/17 13:46:50;;;;;;;15.67;9.87;;;4.20;56.90;;;;;;14997486;29;20218;-89
2021/01/17 13:54:18;;;;;;;11.63;9.60;;;;;;;;;;14998473;29;20276;-84
2021/01/17 14:01:45;;;;;;;14.20;10.17;;;;;;;;;;15021590;29;20197;-90
2021/01/17 14:09:13;;;;;;;10.67;9.20;;;;;;;;;;15004070;29;20213;-84
2021/01/17 14:16:41;;;;;;;15.60;10.30;;;;;;;;;;15014453;29;20309;-83
2021/01/17 14:24:08;;;;;;;18.07;10.63;;;;;;;;;;15059965;29;20233;-85
2021/01/17 14:31:36;;;;;;;16.30;11.70;;;;;;;;;;15009118;29;20729;-86
2021/01/17 14:39:04;;;;;;;15.87;12.30;;;3.70;56.80;;;;;;15002611;29;20607;-81
2021/01/17 14:46:38;;;;;;;19.57;13.73;;;;;;;;;;15002135;29;20221;-80
2021/01/17 14:54:07;;;;;;;14.83;12.40;;;;;;;;;;15017745;29;20209;-87
2021/01/17 15:01:34;;;;;;;17.73;13.03;;;;;;;;;;15003715;29;20186;-83
2021/01/17 15:09:01;;;;;;;15.53;12.53;;;;;;;;;;15016750;29;20202;-81
2021/01/17 15:16:29;;;;;;;15.47;11.73;;;;;;;;;;15019325;29;20230;-90
2021/01/17 15:23:56;;;;;;;14.77;13.17;;;;;;;;;;15001809;29;20265;-82
2021/01/17 15:31:23;;;;;;;16.03;12.13;;;;;;;;;;15017853;29;20254;-89
2021/01/17 15:38:53;;;;;;;16.60;13.33;;;;;;;;;;15018648;29;20225;-91
2021/01/17 15:46:21;;;;;;;14.30;11.60;;;;;;;;;;15000018;29;20186;-86
2021/01/17 15:53:48;;;;;;;13.43;10.30;;;;;;;;;;15013987;29;20222;-81
2021/01/17 16:01:23;;;;;;;15.90;11.00;;;;;;;;;;15014732;29;20182;-85
2021/01/17 16:08:51;;;;;;;16.20;11.30;;;;;;;;;;15054451;29;20293;-82
2021/01/17 16:16:18;;;;;;;19.87;11.30;;;;;;;;;;15001402;29;20214;-82
2021/01/17 16:23:46;;;;;;;15.53;11.37;;;;;;;;;;15013317;29;20233;-85
2021/01/17 16:31:12;;;;;;;16.30;11.43;;;;;;;;;;14996161;29;20281;-82
2021/01/17 16:38:39;;;;;;;15.57;10.57;;;;;;;;;;15011544;29;20289;-84
2021/01/17 16:46:06;;;;;;;13.63;10.87;;;;;;;;;;14996080;29;20206;-81
2021/01/17 16:53:33;;;;;;;18.50;12.83;;;;;;;;;;15017218;29;20221;-85
2021/01/17 17:00:59;;;;;;;16.37;13.20;;;;;;;;;;14997798;29;20703;-83
2021/01/17 17:08:27;;;;;;;17.17;13.57;;;;;;;;;;15015333;29;20222;-83
2021/01/17 17:15:53;;;;;;;17.70;13.53;;;;;;;;;;15014567;29;20241;-83
2021/01/17 17:23:19;;;;;;;19.17;14.50;;;;;;;;;;15014634;29;20237;-77
2021/01/17 17:30:47;;;;;;;22.67;16.50;;;;;;;;;;15005256;29;20202;-81
2021/01/17 17:38:13;;;;;;;22.67;16.80;;;;;;;;;;15018674;29;20297;-81
2021/01/17 17:45:40;;;;;;;20.07;15.73;;;;;;;;;;15023342;29;20226;-87
2021/01/17 17:53:09;;;;;;;23.00;16.90;;;;;;;;;;15007290;29;20220;-87
2021/01/17 18:00:35;;;;;;;23.07;17.07;;;;;;;;;;15004104;29;20206;-83
2021/01/17 18:08:03;;;;;;;23.37;18.30;;;;;;;;;;15019321;29;20218;-80
2021/01/17 18:15:32;;;;;;;22.77;18.23;;;;;;;;;;15016389;29;20217;-83
2021/01/17 18:23:00;;;;;;;22.80;17.37;;;;;;;;;;15021331;29;20604;-83
2021/01/17 18:30:27;;;;;;;22.47;18.53;;;;;;;;;;15021869;29;20717;-84
2021/01/17 18:37:54;;;;;;;22.23;16.30;;;;;;;;;;15004483;29;20234;-87
2021/01/17 18:45:22;;;;;;;21.47;15.73;;;;;;;;;;15032995;29;20206;-91
2021/01/17 18:52:48;;;;;;;23.50;17.30;;;;;;;;;;15035697;29;20237;-89
2021/01/17 19:00:17;;;;;;;24.00;16.97;;;;;;;;;;15027387;29;20206;-84
2021/01/17 19:07:43;;;;;;;25.40;17.43;;;;;;;;;;15005682;29;20700;-86
2021/01/17 19:15:10;;;;;;;24.53;19.00;;;;;;;;;;15032514;29;20286;-90
2021/01/17 19:22:37;;;;;;;30.03;23.27;;;;;;;;;;15050298;29;20720;-85
2021/01/17 19:30:04;;;;;;;32.97;25.40;;;;;;;;;;14999318;29;20209;-84
2021/01/17 19:37:30;;;;;;;24.50;17.23;;;;;;;;;;15023133;29;20226;-78
2021/01/17 19:44:57;;;;;;;29.20;20.20;;;;;;;;;;15017712;29;20202;-86
2021/01/17 19:52:24;;;;;;;27.80;21.77;;;;;;;;;;15023451;29;20222;-82
2021/01/17 19:59:50;;;;;;;30.90;24.67;;;;;;;;;;15015783;29;20220;-84
2021/01/17 20:07:19;;;;;;;29.20;21.77;;;;;;;;;;15013757;29;20218;-81
2021/01/17 20:14:45;;;;;;;21.97;15.63;;;;;;;;;;14994185;29;20234;-80
2021/01/17 20:22:12;;;;;;;20.73;14.83;;;;;;;;;;14999534;29;20725;-86
2021/01/17 20:29:47;;;;;;;18.17;13.53;;;;;;;;;;14988785;29;20198;-88
2021/01/17 20:37:13;;;;;;;18.90;14.00;;;;;;;;;;15025854;29;20226;-85
2021/01/17 20:44:49;;;;;;;18.07;13.77;;;;;;;;;;15012995;29;20261;-84
2021/01/17 20:52:15;;;;;;;19.83;14.57;;;;;;;;;;15000636;29;20210;-80
2021/01/17 20:59:42;;;;;;;19.93;14.17;;;;;;;;;;15033041;29;20213;-83
2021/01/17 21:07:10;;;;;;;22.43;15.50;;;;;;;;;;15017067;29;20229;-85
2021/01/17 21:14:37;;;;;;;21.27;15.67;;;;;;;;;;14985481;29;20237;-85
2021/01/17 21:22:04;;;;;;;21.57;15.30;;;;;;;;;;15000451;29;20225;-87
2021/01/17 21:29:33;;;;;;;26.73;17.50;;;;;;;;;;15028116;29;20202;-89
2021/01/17 21:37:00;;;;;;;25.40;17.40;;;;;;;;;;15023578;29;20241;-91
2021/01/17 21:44:27;;;;;;;26.23;19.00;;;;;;;;;;15000062;29;20198;-88
2021/01/17 21:52:00;;;;;;;28.37;19.13;;;;;;;;;;15052246;29;20237;-86
2021/01/17 21:59:28;;;;;;;31.03;19.73;;;;;;;;;;15026047;29;20190;-88
2021/01/17 22:06:57;;;;;;;29.67;19.90;;;;;;;;;;15027869;29;20206;-87
2021/01/17 22:14:28;;;;;;;32.37;20.63;;;;;;;;;;15021364;29;20209;-83
2021/01/17 22:21:55;;;;;;;32.23;20.57;;;;;;;;;;15043548;29;20234;-91
2021/01/17 22:29:22;;;;;;;29.87;20.97;;;;;;;;;;14997385;29;20210;-89
2021/01/17 22:36:50;;;;;;;29.60;20.60;;;;;;;;;;15014179;29;20238;-81
2021/01/17 22:44:18;;;;;;;28.97;18.90;;;;;;;;;;14998477;29;20273;-81
2021/01/17 22:51:45;;;;;;;27.90;19.40;;;;;;;;;;15017030;29;20217;-86
2021/01/17 22:59:13;;;;;;;33.90;21.27;;;;;;;;;;15003634;29;20760;-80
2021/01/17 23:06:40;;;;;;;30.63;20.27;;;;;;;;;;15020709;29;21077;-83
2021/01/17 23:14:08;;;;;;;26.67;17.20;;;;;;;;;;15022515;29;20230;-81
2021/01/17 23:21:36;;;;;;;21.60;15.27;;;;;;;;;;15000014;29;20246;-85
2021/01/17 23:29:02;;;;;;;24.83;15.50;;;;;;;;;;15016343;29;20592;-91
2021/01/17 23:36:31;;;;;;;21.50;14.53;;;;;;;;;;15015475;29;20607;-78
2021/01/17 23:43:58;;;;;;;21.67;14.20;;;;;;;;;;14995461;29;20213;-77
2021/01/17 23:51:29;;;;;;;23.60;16.83;;;;;;;;;;14981652;29;20586;-77
2021/01/17 23:58:55;;;;;;;28.33;18.97;;;;;;;;;;14982248;29;20298;-78
